Terminal Aerodrome Forecast
Issued by NWS

Home | Current Version | Previous Version | Graphics & Text | Print | Product List | Glossary On
Versions: 1 2 3 4 5 6 7 8 9 10 11 12 13 14 15 16 17 18 19 20 21 22 23 24 25 26 27
941
FTUS43 KLOT 140813 AAA
TAFDPA
TAF AMD
KDPA 140813Z 1408/1506 VRB03KT P6SM FEW250
     FM141600 20008KT P6SM BKN250
     FM142000 18010KT P6SM BKN050 BKN200
     FM142300 17011KT 5SM -SN SCT030 OVC050
     FM150100 17012KT 1 1/2SM -SN BKN015 OVC025=

USA.gov is the U.S. government's official web portal to all federal, state and local government web resources and services.